Time;durP1;ratioP1;P1;durP2;ratioP2;P2;SDS_P1;SDS_P2;PMS_P1;PMS_P2;Temp;Humidity;BMP_temperature;BMP_pressure;BME280_temperature;BME280_humidity;BME280_pressure;Samples;Min_cycle;Max_cycle;Signal;HPM_P1;HPM_P2
2024/01/08 00:00:32;;;;;;;5.05;3.00;;;;;;;9.48;70.43;93432.31;5048081;28;20017;-81
2024/01/08 00:02:57;;;;;;;4.82;2.78;;;;;;;9.49;70.57;93435.81;5047457;28;20029;-81
2024/01/08 00:05:23;;;;;;;5.07;2.90;;;;;;;9.44;70.56;93431.72;5047637;28;20025;-80
2024/01/08 00:07:48;;;;;;;4.22;2.65;;;;;;;9.45;70.67;93424.25;5046292;28;20029;-81
2024/01/08 00:10:14;;;;;;;3.25;2.03;;;;;;;9.49;70.36;93433.06;5047900;28;20120;-80
2024/01/08 00:12:39;;;;;;;3.40;2.35;;;;;;;9.43;70.57;93438.44;5047858;28;20017;-81
2024/01/08 00:15:05;;;;;;;4.57;2.28;;;;;;;9.42;70.68;93445.16;5047411;28;20077;-81
2024/01/08 00:17:30;;;;;;;3.55;2.22;;;;;;;9.42;70.63;93444.38;5047448;28;20068;-81
2024/01/08 00:19:56;;;;;;;3.38;1.92;;;;;;;9.40;70.71;93439.34;5047358;28;20029;-81
2024/01/08 00:22:21;;;;;;;3.25;1.92;;;;;;;9.38;70.62;93446.53;5047383;28;20100;-81
2024/01/08 00:24:46;;;;;;;3.45;1.90;;;;;;;9.39;70.68;93448.03;5047051;28;20109;-81
2024/01/08 00:27:12;;;;;;;3.38;2.60;;;;;;;9.39;70.63;93442.56;5047282;28;20102;-81
2024/01/08 00:29:37;;;;;;;5.32;2.55;;;;;;;9.40;70.79;93446.81;5047274;28;20035;-80
2024/01/08 00:32:05;;;;;;;3.35;2.38;;;;;;;9.39;71.09;93453.53;5047305;28;20040;-80
2024/01/08 00:34:30;;;;;;;2.47;1.88;;;;;;;9.40;70.72;93452.31;5047275;28;20021;-81
2024/01/08 00:36:56;;;;;;;3.72;2.03;;;;;;;9.41;70.71;93457.34;5047140;28;20021;-82
2024/01/08 00:39:21;;;;;;;3.88;2.33;;;;;;;9.40;70.50;93457.78;5047220;28;20380;-82
2024/01/08 00:41:47;;;;;;;5.43;2.40;;;;;;;9.41;70.50;93462.06;5046911;28;20064;-80
2024/01/08 00:44:12;;;;;;;5.25;2.30;;;;;;;9.44;70.20;93456.41;5045898;28;20480;-81
2024/01/08 00:46:37;;;;;;;3.63;2.42;;;;;;;9.45;69.82;93459.91;5046998;28;20067;-81
2024/01/08 00:49:03;;;;;;;4.22;2.60;;;;;;;9.44;69.93;93463.88;5047041;28;20029;-80
2024/01/08 00:51:28;;;;;;;4.68;3.47;;;;;;;9.44;70.03;93467.38;5046992;28;20116;-81
2024/01/08 00:53:56;;;;;;;4.47;2.17;;;;;;;9.42;69.91;93475.31;5047205;28;20032;-81
2024/01/08 00:56:22;;;;;;;2.60;2.35;;;;;;;9.47;69.89;93480.16;5047335;28;20084;-81
2024/01/08 00:58:47;;;;;;;3.75;2.45;;;;;;;9.39;70.23;93473.50;5047424;28;20430;-82
2024/01/08 01:01:12;;;;;;;2.65;2.05;;;;;;;9.41;70.13;93473.03;5047061;28;20048;-81
2024/01/08 01:03:38;;;;;;;4.13;3.00;;;;;;;9.44;69.71;93474.84;5047088;28;20055;-81
2024/01/08 01:06:03;;;;;;;5.30;3.55;;;;;;;9.42;69.85;93480.81;5051088;28;20035;-82
2024/01/08 01:08:29;;;;;;;4.60;3.80;;;;;;;9.41;69.79;93473.03;5052513;28;20017;-81
2024/01/08 01:10:54;;;;;;;6.25;4.00;;;;;;;9.40;69.64;93483.22;5052351;28;20090;-81
2024/01/08 01:13:20;;;;;;;6.47;3.78;;;;;;;9.36;69.69;93482.66;5052863;28;20016;-81
2024/01/08 01:15:45;;;;;;;4.72;3.95;;;;;;;9.37;69.65;93486.16;5050486;28;20571;-82
2024/01/08 01:18:11;;;;;;;6.13;4.55;;;;;;;9.37;69.70;93488.91;5046005;28;20560;-82
2024/01/08 01:20:36;;;;;;;6.35;4.55;;;;;;;9.40;69.44;93491.47;5047708;28;20031;-82
2024/01/08 01:23:02;;;;;;;7.72;5.18;;;;;;;9.35;69.29;93485.84;5046551;28;20215;-82
2024/01/08 01:25:27;;;;;;;8.65;5.15;;;;;;;9.25;69.29;93487.88;5046581;28;20048;-81
2024/01/08 01:27:52;;;;;;;8.40;5.93;;;;;;;9.24;69.27;93491.84;5046639;28;20092;-81
2024/01/08 01:30:18;;;;;;;7.78;5.63;;;;;;;9.20;69.11;93491.25;5046946;28;20467;-81
2024/01/08 01:32:43;;;;;;;8.23;6.00;;;;;;;9.19;68.94;93497.97;5046687;28;20036;-81
2024/01/08 01:35:09;;;;;;;7.45;6.03;;;;;;;9.14;68.80;93501.31;5046271;28;20028;-81
2024/01/08 01:37:34;;;;;;;7.75;5.55;;;;;;;9.08;68.88;93500.44;5046516;28;20021;-80
2024/01/08 01:39:59;;;;;;;6.85;5.28;;;;;;;9.00;69.36;93499.97;5046082;28;20112;-81
2024/01/08 01:42:25;;;;;;;7.80;5.78;;;;;;;8.99;69.04;93493.75;5044758;28;20033;-81
2024/01/08 01:44:50;;;;;;;7.15;5.72;;;;;;;8.85;69.50;93491.66;5046173;28;20025;-82
2024/01/08 01:47:15;;;;;;;8.75;6.07;;;;;;;8.91;69.56;93502.75;5044896;28;20029;-81
2024/01/08 01:49:41;;;;;;;7.32;5.72;;;;;;;8.88;69.57;93500.94;5045356;28;20431;-81
2024/01/08 01:52:08;;;;;;;7.93;5.70;;;;;;;8.86;69.32;93500.63;5046376;28;20028;-82
2024/01/08 01:54:34;;;;;;;8.18;6.05;;;;;;;8.83;69.53;93501.53;5045439;28;20090;-82
2024/01/08 01:57:00;;;;;;;7.10;5.28;;;;;;;8.72;69.72;93500.06;5044673;28;20467;-82
2024/01/08 01:59:29;;;;;;;8.50;5.53;;;;;;;8.71;69.70;93504.00;5046537;28;20021;-82
2024/01/08 02:01:56;;;;;;;6.70;5.35;;;;;;;8.63;69.78;93502.06;5046539;28;20044;-82
2024/01/08 02:04:24;;;;;;;8.48;5.07;;;;;;;8.64;70.01;93500.81;5046395;28;20042;-82
2024/01/08 02:06:50;;;;;;;7.57;5.80;;;;;;;8.59;70.21;93502.19;5044611;28;20048;-81
2024/01/08 02:09:15;;;;;;;8.50;5.68;;;;;;;8.55;70.38;93500.84;5044820;28;20376;-80
2024/01/08 02:11:41;;;;;;;6.85;5.05;;;;;;;8.47;70.60;93506.63;5046161;28;20025;-80
2024/01/08 02:14:06;;;;;;;8.95;4.85;;;;;;;8.48;70.68;93512.84;5044662;28;20032;-80
2024/01/08 02:16:32;;;;;;;6.68;4.65;;;;;;;8.52;70.46;93510.72;5045831;28;20048;-80
2024/01/08 02:18:57;;;;;;;8.45;4.63;;;;;;;8.58;70.37;93516.34;5045830;28;20025;-81
2024/01/08 02:21:23;;;;;;;6.68;5.03;;;;;;;8.52;70.32;93518.94;5045734;28;20411;-80
2024/01/08 02:23:49;;;;;;;6.07;4.75;;;;;;;8.53;70.47;93520.47;5046212;28;20128;-81
2024/01/08 02:26:14;;;;;;;5.38;4.43;;;;;;;8.47;70.63;93519.56;5046042;28;20133;-80
2024/01/08 02:28:39;;;;;;;6.70;4.95;;;;;;;8.50;70.59;93529.59;5046017;28;20062;-80
2024/01/08 02:31:05;;;;;;;6.65;5.10;;;;;;;8.46;70.54;93524.28;5046770;28;20363;-81
2024/01/08 02:33:30;;;;;;;6.18;4.55;;;;;;;8.46;70.75;93521.53;5049595;28;20036;-81
2024/01/08 02:35:57;;;;;;;4.95;3.92;;;;;;;8.46;70.48;93523.50;5049411;28;20025;-81
2024/01/08 02:38:22;;;;;;;7.80;3.97;;;;;;;8.48;70.36;93529.28;5048392;28;20035;-80
2024/01/08 02:40:48;;;;;;;5.30;3.97;;;;;;;8.50;70.24;93535.09;5049381;28;20025;-80
2024/01/08 02:43:13;;;;;;;4.57;3.70;;;;;;;8.44;70.57;93534.19;5048947;28;20093;-80
2024/01/08 02:45:39;;;;;;;6.03;4.13;;;;;;;8.42;70.72;93537.34;5049812;28;20025;-80
2024/01/08 02:48:04;;;;;;;4.65;3.38;;;;;;;8.50;70.27;93532.34;5049036;28;20033;-80
2024/01/08 02:50:30;;;;;;;5.00;3.65;;;;;;;8.52;70.19;93540.84;5049234;28;20028;-81
2024/01/08 02:52:55;;;;;;;5.32;3.67;;;;;;;8.49;69.97;93542.53;5049208;28;20359;-81
2024/01/08 02:55:20;;;;;;;4.55;3.42;;;;;;;8.51;69.98;93544.81;5049078;28;20017;-80
2024/01/08 02:57:46;;;;;;;4.90;3.60;;;;;;;8.49;69.84;93544.53;5048950;28;20033;-81
2024/01/08 03:00:12;;;;;;;4.13;3.00;;;;;;;8.47;69.71;93544.19;5048693;28;20353;-81
2024/01/08 03:02:38;;;;;;;5.53;3.80;;;;;;;8.36;70.17;93544.66;5049148;28;20107;-81
2024/01/08 03:05:04;;;;;;;4.30;3.30;;;;;;;8.36;70.40;93552.13;5048880;28;20484;-82
2024/01/08 03:07:29;;;;;;;6.10;3.67;;;;;;;8.39;70.18;93554.72;5048968;28;20035;-80
2024/01/08 03:09:57;;;;;;;4.82;3.58;;;;;;;8.42;69.91;93561.25;5047429;28;20408;-79
2024/01/08 03:12:23;;;;;;;5.55;3.55;;;;;;;8.39;70.16;93562.16;5048995;28;20043;-80
2024/01/08 03:14:48;;;;;;;5.00;3.83;;;;;;;8.32;70.30;93556.97;5048551;28;20025;-80
2024/01/08 03:17:14;;;;;;;5.20;3.55;;;;;;;8.36;70.18;93565.81;5048237;28;20491;-80
2024/01/08 03:19:39;;;;;;;5.60;3.80;;;;;;;8.32;70.29;93568.69;5048649;28;20043;-80
2024/01/08 03:22:04;;;;;;;5.20;3.92;;;;;;;8.28;70.54;93572.78;5048265;28;20035;-80
2024/01/08 03:24:30;;;;;;;5.00;3.70;;;;;;;8.34;70.53;93573.69;5048666;28;20040;-81
2024/01/08 03:26:55;;;;;;;6.45;3.92;;;;;;;8.30;70.69;93586.75;5048406;28;20021;-80
2024/01/08 03:29:22;;;;;;;4.47;3.97;;;;;;;8.28;70.68;93578.25;5048650;28;20475;-80
2024/01/08 03:31:47;;;;;;;5.65;4.50;;;;;;;8.36;70.44;93580.25;5048858;28;20037;-80
2024/01/08 03:34:13;;;;;;;6.32;4.60;;;;;;;8.34;70.74;93579.16;5048495;28;20533;-79
2024/01/08 03:36:38;;;;;;;6.75;4.50;;;;;;;8.28;70.70;93583.72;5048300;28;20076;-81
2024/01/08 03:39:04;;;;;;;6.65;4.75;;;;;;;8.27;70.66;93591.19;5047914;28;20017;-80
2024/01/08 03:41:29;;;;;;;6.07;4.95;;;;;;;8.26;70.85;93586.94;5048271;28;20214;-80
2024/01/08 03:43:55;;;;;;;6.55;5.22;;;;;;;8.27;70.87;93596.66;5048162;28;20545;-80
2024/01/08 03:46:20;;;;;;;6.65;5.10;;;;;;;8.28;70.67;93603.66;5048298;28;20021;-81
2024/01/08 03:48:45;;;;;;;7.32;5.65;;;;;;;8.20;71.06;93594.97;5048519;28;20211;-80
2024/01/08 03:51:11;;;;;;;6.72;5.18;;;;;;;8.14;71.28;93602.25;5048217;28;20503;-80
2024/01/08 03:53:37;;;;;;;8.75;5.47;;;;;;;8.21;71.12;93612.16;5047869;28;20029;-80
2024/01/08 03:56:02;;;;;;;7.85;5.28;;;;;;;8.22;70.95;93605.47;5047650;28;20068;-80
2024/01/08 03:58:27;;;;;;;7.78;5.38;;;;;;;8.19;71.00;93618.06;5047870;28;20059;-81
2024/01/08 04:00:56;;;;;;;7.22;5.70;;;;;;;8.15;71.13;93613.97;5047788;28;20021;-81
2024/01/08 04:03:22;;;;;;;9.05;6.03;;;;;;;8.09;70.88;93624.75;5047927;28;20901;-79
2024/01/08 04:05:47;;;;;;;7.30;6.00;;;;;;;8.10;71.06;93629.00;5047873;28;20131;-80
2024/01/08 04:08:13;;;;;;;9.20;5.93;;;;;;;8.13;71.11;93635.53;5047700;28;20029;-80
2024/01/08 04:10:38;;;;;;;6.63;5.30;;;;;;;8.17;70.79;93633.44;5047604;28;20021;-79
2024/01/08 04:13:04;;;;;;;7.40;5.65;;;;;;;8.07;70.61;93629.16;5047628;28;20040;-81
2024/01/08 04:15:30;;;;;;;7.97;5.55;;;;;;;8.10;70.57;93639.19;5047495;28;20075;-80
2024/01/08 04:17:55;;;;;;;7.03;5.32;;;;;;;7.98;70.67;93649.06;5047374;28;20033;-81
2024/01/08 04:20:20;;;;;;;6.55;5.22;;;;;;;7.97;70.60;93647.50;5047961;28;20021;-80
2024/01/08 04:22:48;;;;;;;6.35;4.03;;;;;;;8.02;69.66;93652.38;5047284;28;20083;-80
2024/01/08 04:25:14;;;;;;;5.03;3.72;;;;;;;7.97;69.72;93655.72;5047381;28;20029;-81
2024/01/08 04:27:39;;;;;;;4.78;3.10;;;;;;;7.83;69.25;93653.53;5047660;28;20087;-81
2024/01/08 04:30:05;;;;;;;3.25;2.83;;;;;;;7.80;69.45;93660.69;5047032;28;20041;-81
2024/01/08 04:32:30;;;;;;;3.00;1.88;;;;;;;7.68;68.69;93667.00;5047619;28;20025;-81
2024/01/08 04:34:56;;;;;;;2.85;1.60;;;;;;;7.54;68.48;93665.56;5047023;28;20487;-80
2024/01/08 04:37:21;;;;;;;2.15;1.52;;;;;;;7.48;68.51;93672.06;5047539;28;20021;-79
2024/01/08 04:39:47;;;;;;;3.33;1.60;;;;;;;7.43;68.60;93674.16;5047301;28;20087;-80
2024/01/08 04:42:12;;;;;;;1.60;1.13;;;;;;;7.37;68.64;93683.38;5047612;28;20036;-80
2024/01/08 04:44:37;;;;;;;2.28;1.20;;;;;;;7.30;68.78;93700.81;5046609;28;20443;-81
2024/01/08 04:47:03;;;;;;;2.15;1.30;;;;;;;7.24;68.62;93697.13;5047059;28;20029;-81
2024/01/08 04:49:28;;;;;;;1.83;1.35;;;;;;;7.21;68.46;93691.78;5047123;28;20025;-82
2024/01/08 04:51:54;;;;;;;1.33;1.05;;;;;;;7.16;68.41;93696.59;5047082;28;20029;-85
2024/01/08 04:54:19;;;;;;;2.08;1.40;;;;;;;7.10;68.32;93717.50;5046603;28;20432;-83
2024/01/08 04:56:45;;;;;;;1.48;1.10;;;;;;;7.04;68.10;93713.81;5047690;28;20036;-82
2024/01/08 04:59:10;;;;;;;3.00;1.63;;;;;;;7.04;68.23;93716.56;5047717;28;20029;-82
2024/01/08 05:01:39;;;;;;;2.40;1.60;;;;;;;6.99;68.19;93721.81;5047477;28;20111;-82
2024/01/08 05:04:05;;;;;;;1.83;1.33;;;;;;;6.98;67.95;93733.97;5046706;28;20032;-82
2024/01/08 05:06:30;;;;;;;2.20;1.42;;;;;;;6.96;68.31;93741.84;5046862;28;20028;-82
2024/01/08 05:08:55;;;;;;;2.78;1.60;;;;;;;6.93;67.97;93746.22;5046638;28;20036;-81
2024/01/08 05:11:21;;;;;;;2.08;1.52;;;;;;;6.94;67.92;93750.50;5047102;28;20025;-81
2024/01/08 05:13:47;;;;;;;1.88;1.70;;;;;;;6.90;67.93;93747.13;5046931;28;20021;-82
2024/01/08 05:16:12;;;;;;;2.20;1.45;;;;;;;6.83;67.51;93742.66;5046553;28;20037;-81
2024/01/08 05:18:37;;;;;;;2.10;1.70;;;;;;;6.80;67.76;93761.88;5045696;28;20033;-82
2024/01/08 05:21:07;;;;;;;2.13;1.60;;;;;;;6.65;66.85;93756.91;5046357;28;20462;-82
2024/01/08 05:23:33;;;;;;;1.40;1.20;;;;;;;6.58;66.22;93756.34;5045222;28;20079;-82
2024/01/08 05:25:59;;;;;;;2.13;1.90;;;;;;;6.53;66.82;93768.59;5046451;28;20396;-83
2024/01/08 05:28:26;;;;;;;3.35;2.72;;;;;;;6.48;66.68;93769.16;5046865;28;20446;-82
2024/01/08 05:30:51;;;;;;;2.95;2.40;;;;;;;6.48;66.75;93779.28;5046492;28;20043;-84
2024/01/08 05:33:17;;;;;;;2.25;1.80;;;;;;;6.39;66.82;93783.47;5046388;28;20490;-82
2024/01/08 05:35:42;;;;;;;3.42;2.15;;;;;;;6.39;66.85;93782.69;5046607;28;20099;-81
2024/01/08 05:38:07;;;;;;;2.08;1.60;;;;;;;6.35;66.60;93792.94;5046254;28;20032;-82
2024/01/08 05:40:33;;;;;;;2.25;1.60;;;;;;;6.31;67.00;93790.34;5046770;28;20025;-82
2024/01/08 05:42:58;;;;;;;2.55;2.08;;;;;;;6.32;66.78;93800.06;5046318;28;20043;-85
2024/01/08 05:45:24;;;;;;;2.40;1.85;;;;;;;6.27;66.38;93808.03;5046683;28;20029;-80
2024/01/08 05:47:50;;;;;;;2.15;1.60;;;;;;;6.19;66.78;93803.97;5046347;28;20108;-81
2024/01/08 05:50:19;;;;;;;2.08;1.70;;;;;;;6.11;67.17;93814.34;5046066;28;20052;-80
2024/01/08 05:52:44;;;;;;;2.42;1.85;;;;;;;6.05;67.52;93816.84;5046412;28;20040;-80
2024/01/08 05:55:13;;;;;;;3.08;2.58;;;;;;;6.04;67.71;93815.31;5046020;28;20493;-79
2024/01/08 05:57:39;;;;;;;3.25;1.80;;;;;;;6.11;67.78;93825.25;5046080;28;20364;-80
2024/01/08 06:00:05;;;;;;;3.45;2.63;;;;;;;6.06;67.45;93840.19;5046123;28;20048;-83
2024/01/08 06:02:31;;;;;;;2.63;1.95;;;;;;;6.03;67.89;93829.41;5046586;28;20068;-83
2024/01/08 06:04:56;;;;;;;2.83;2.20;;;;;;;6.03;67.14;93841.06;5046312;28;20074;-81
2024/01/08 06:07:22;;;;;;;2.83;2.13;;;;;;;6.02;67.43;93842.28;5048927;28;20060;-82
2024/01/08 06:09:47;;;;;;;2.78;2.10;;;;;;;6.01;66.60;93848.16;5048559;28;20029;-81
2024/01/08 06:12:13;;;;;;;2.15;1.92;;;;;;;5.88;66.95;93844.59;5049985;28;20047;-82
2024/01/08 06:14:39;;;;;;;2.83;2.15;;;;;;;5.82;67.52;93852.56;5049665;28;20123;-80
2024/01/08 06:17:04;;;;;;;3.00;2.40;;;;;;;5.80;67.76;93850.28;5049824;28;20025;-82
2024/01/08 06:19:29;;;;;;;2.45;2.00;;;;;;;5.82;67.88;93855.28;5049807;28;20506;-81
2024/01/08 06:21:55;;;;;;;2.75;1.98;;;;;;;5.83;67.59;93854.09;5049779;28;20044;-80
2024/01/08 06:24:20;;;;;;;3.25;2.20;;;;;;;5.82;67.88;93863.47;5049669;28;20414;-82
2024/01/08 06:26:46;;;;;;;2.75;2.22;;;;;;;5.83;67.58;93863.03;5049687;28;20041;-81
2024/01/08 06:29:11;;;;;;;2.33;1.95;;;;;;;5.80;67.48;93874.81;5049525;28;20025;-82
2024/01/08 06:31:37;;;;;;;4.55;2.78;;;;;;;5.81;67.39;93870.88;5049576;28;20032;-82
2024/01/08 06:34:02;;;;;;;2.92;2.20;;;;;;;5.72;67.15;93865.28;5049829;28;20100;-82
2024/01/08 06:36:28;;;;;;;2.55;2.13;;;;;;;5.76;67.38;93879.59;5049721;28;20541;-81
2024/01/08 06:38:53;;;;;;;2.83;1.90;;;;;;;5.74;68.37;93886.69;5049912;28;20032;-81
2024/01/08 06:41:18;;;;;;;2.92;2.00;;;;;;;5.69;68.40;93893.44;5049247;28;20140;-82
2024/01/08 06:43:44;;;;;;;3.05;2.30;;;;;;;5.69;68.11;93898.13;5049825;28;20036;-82
2024/01/08 06:46:09;;;;;;;3.70;2.03;;;;;;;5.66;68.28;93897.00;5049151;28;20096;-82
2024/01/08 06:48:35;;;;;;;3.65;2.10;;;;;;;5.60;68.41;93904.16;5049531;28;20384;-82
2024/01/08 06:51:03;;;;;;;4.35;2.45;;;;;;;5.63;68.20;93913.47;5049119;28;20407;-80
2024/01/08 06:53:29;;;;;;;3.53;2.67;;;;;;;5.62;68.22;93920.09;5049428;28;20025;-80
2024/01/08 06:55:54;;;;;;;4.82;2.13;;;;;;;5.59;68.06;93919.78;5049232;28;20036;-81
2024/01/08 06:58:19;;;;;;;2.60;2.30;;;;;;;5.53;68.05;93923.44;5049163;28;20138;-82
2024/01/08 07:00:45;;;;;;;2.38;1.67;;;;;;;5.47;67.44;93920.47;5049507;28;20035;-83
2024/01/08 07:03:10;;;;;;;2.47;1.98;;;;;;;5.44;67.29;93928.72;5049072;28;20059;-82
2024/01/08 07:05:36;;;;;;;2.40;2.03;;;;;;;5.36;67.49;93939.06;5049367;28;20025;-81
2024/01/08 07:08:01;;;;;;;3.70;2.05;;;;;;;5.32;67.47;93943.81;5048806;28;20076;-81
2024/01/08 07:10:28;;;;;;;3.03;2.10;;;;;;;5.30;67.57;93955.16;5049253;28;20160;-81
2024/01/08 07:12:53;;;;;;;3.72;2.20;;;;;;;5.27;67.80;93952.50;5049783;28;20024;-81
2024/01/08 07:15:38;;;;;;;3.63;2.35;;;;;;;5.27;67.41;93956.00;5048809;28;20502;-80
2024/01/08 07:18:04;;;;;;;3.03;2.30;;;;;;;5.27;67.34;93963.41;5049171;28;20384;-81
2024/01/08 07:20:30;;;;;;;2.90;2.38;;;;;;;5.26;67.38;93965.38;5059431;28;20079;-81
2024/01/08 07:22:55;;;;;;;2.83;2.30;;;;;;;5.30;66.91;93970.75;5059290;28;20104;-81
2024/01/08 07:25:20;;;;;;;3.33;2.55;;;;;;;5.30;66.88;93974.22;5058509;28;20408;-81
2024/01/08 07:27:46;;;;;;;4.35;2.35;;;;;;;5.27;66.98;93977.78;5060532;28;20080;-81
2024/01/08 07:30:12;;;;;;;4.57;2.60;;;;;;;5.28;67.04;93984.03;5064863;28;20017;-84
2024/01/08 07:32:37;;;;;;;3.78;3.03;;;;;;;5.28;67.04;93987.53;5058065;28;20036;-83
2024/01/08 07:35:03;;;;;;;4.20;3.10;;;;;;;5.35;66.72;93996.72;5051424;28;20132;-83
2024/01/08 07:37:29;;;;;;;3.65;2.75;;;;;;;5.35;66.09;94002.94;5049615;28;20083;-81
2024/01/08 07:39:54;;;;;;;5.13;3.17;;;;;;;5.32;66.52;94003.78;5032448;28;20034;-82
2024/01/08 07:42:19;;;;;;;6.55;2.85;;;;;;;5.35;66.52;94011.13;5028831;28;20022;-82
2024/01/08 07:44:45;;;;;;;4.95;2.58;;;;;;;5.35;66.66;94013.06;5028625;28;20337;-82
2024/01/08 07:47:10;;;;;;;4.57;3.40;;;;;;;5.39;66.18;94019.97;5028988;28;20460;-82
2024/01/08 07:49:36;;;;;;;3.50;2.88;;;;;;;5.41;65.90;94023.03;5028858;28;20030;-82
2024/01/08 07:52:02;;;;;;;3.97;3.30;;;;;;;5.41;66.04;94031.22;5028225;28;20377;-81
2024/01/08 07:54:27;;;;;;;3.13;2.45;;;;;;;5.41;65.38;94025.00;5028269;28;20083;-81
2024/01/08 07:56:53;;;;;;;4.32;3.13;;;;;;;5.43;65.83;94030.78;5028460;28;20052;-83
2024/01/08 07:59:18;;;;;;;3.40;2.45;;;;;;;5.45;65.39;94034.63;5028298;28;20064;-82
2024/01/08 08:01:43;;;;;;;4.20;3.00;;;;;;;5.39;64.71;94036.34;5028117;28;20033;-81
2024/01/08 08:04:09;;;;;;;2.90;2.40;;;;;;;5.42;64.93;94048.34;5028207;28;20029;-81
2024/01/08 08:06:34;;;;;;;3.88;2.53;;;;;;;5.37;64.54;94055.06;5027873;28;20117;-81
2024/01/08 08:09:01;;;;;;;2.78;2.20;;;;;;;5.40;63.99;94058.91;5028247;28;20033;-82
2024/01/08 08:11:27;;;;;;;2.38;1.75;;;;;;;5.31;63.84;94056.75;5028376;28;20033;-83
2024/01/08 08:13:53;;;;;;;4.10;2.75;;;;;;;5.29;63.90;94064.59;5028686;28;20778;-82
2024/01/08 08:16:18;;;;;;;3.85;3.45;;;;;;;5.22;64.09;94060.06;5028338;28;20575;-83
2024/01/08 08:18:44;;;;;;;4.88;3.63;;;;;;;5.21;64.08;94068.66;5028262;28;20374;-78
2024/01/08 08:21:10;;;;;;;6.45;3.15;;;;;;;5.27;63.76;94069.69;5027768;28;20385;-81
2024/01/08 08:23:36;;;;;;;4.38;3.50;;;;;;;5.22;63.70;94072.94;5028125;28;20068;-82
2024/01/08 08:26:02;;;;;;;3.28;2.80;;;;;;;5.19;63.89;94079.97;5027789;28;20026;-81
2024/01/08 08:28:28;;;;;;;5.18;2.63;;;;;;;5.15;63.99;94082.00;5027040;28;20026;-81
2024/01/08 08:30:54;;;;;;;5.55;3.20;;;;;;;5.13;63.94;94089.09;5027853;28;20087;-82
2024/01/08 08:33:19;;;;;;;6.38;2.70;;;;;;;5.10;63.38;94079.00;5027726;28;20025;-80
2024/01/08 08:35:45;;;;;;;2.58;2.17;;;;;;;5.05;63.67;94094.69;5028049;28;20068;-81
2024/01/08 08:38:10;;;;;;;3.10;2.15;;;;;;;5.03;63.15;94090.84;5026204;28;20414;-81
2024/01/08 08:40:35;;;;;;;3.45;1.90;;;;;;;5.04;63.11;94095.09;5027915;28;20057;-82
2024/01/08 08:43:01;;;;;;;2.05;1.85;;;;;;;5.05;63.24;94099.38;5027699;28;20029;-82
2024/01/08 08:45:28;;;;;;;3.78;2.30;;;;;;;4.93;62.96;94111.69;5027210;28;20064;-81
2024/01/08 08:47:53;;;;;;;3.22;2.30;;;;;;;4.92;63.05;94112.84;5027509;28;20048;-82
2024/01/08 08:50:19;;;;;;;3.25;2.30;;;;;;;4.87;62.93;94123.47;5027141;28;20021;-80
2024/01/08 08:52:44;;;;;;;4.78;2.13;;;;;;;4.82;63.44;94121.22;5027292;28;20072;-81
2024/01/08 08:55:10;;;;;;;3.85;2.25;;;;;;;4.85;63.71;94118.44;5027303;28;20017;-81
2024/01/08 08:57:36;;;;;;;3.00;2.40;;;;;;;4.87;63.06;94115.28;5027390;28;20031;-81
2024/01/08 09:00:02;;;;;;;3.25;2.22;;;;;;;4.74;62.61;94124.09;5027438;28;20030;-82
2024/01/08 09:02:27;;;;;;;3.75;2.38;;;;;;;4.74;63.34;94126.81;5026955;28;20120;-81
2024/01/08 09:04:53;;;;;;;2.72;2.42;;;;;;;4.70;62.37;94130.78;5027092;28;20113;-82
2024/01/08 09:07:22;;;;;;;3.47;2.22;;;;;;;4.68;62.31;94125.00;5026975;28;20511;-82
2024/01/08 09:09:49;;;;;;;2.65;2.33;;;;;;;4.68;62.81;94122.28;5027070;28;20116;-82
2024/01/08 09:12:14;;;;;;;3.92;2.45;;;;;;;4.73;62.74;94125.28;5026882;28;20030;-82
2024/01/08 09:14:41;;;;;;;3.35;2.10;;;;;;;4.75;62.43;94128.34;5027082;28;20363;-81
2024/01/08 09:17:06;;;;;;;3.42;2.33;;;;;;;4.70;62.56;94130.78;5026727;28;20526;-81
2024/01/08 09:19:32;;;;;;;3.40;2.60;;;;;;;4.75;62.44;94133.03;5027282;28;20059;-82
2024/01/08 09:21:57;;;;;;;4.75;2.50;;;;;;;4.72;61.81;94136.59;5026892;28;20499;-82
2024/01/08 09:24:23;;;;;;;4.03;2.63;;;;;;;4.80;61.77;94138.75;5026528;28;20394;-81
2024/01/08 09:26:48;;;;;;;2.92;2.50;;;;;;;4.83;61.59;94139.88;5026684;28;20041;-82
2024/01/08 09:29:13;;;;;;;4.40;2.85;;;;;;;4.84;61.26;94144.13;5027089;28;20026;-81
2024/01/08 09:31:39;;;;;;;8.32;3.38;;;;;;;4.83;61.50;94147.28;5027087;28;20412;-82
2024/01/08 09:34:05;;;;;;;3.65;2.70;;;;;;;4.83;61.28;94141.84;5027095;28;20490;-82
2024/01/08 09:36:31;;;;;;;3.00;2.60;;;;;;;4.88;61.33;94146.81;5026623;28;20038;-82
2024/01/08 09:38:56;;;;;;;3.83;2.65;;;;;;;4.80;61.16;94146.91;5026967;28;20049;-81
2024/01/08 09:41:22;;;;;;;3.28;2.50;;;;;;;4.80;60.51;94133.31;5030174;28;20025;-82
2024/01/08 09:43:47;;;;;;;3.72;2.33;;;;;;;4.76;60.35;94140.78;5029283;28;20100;-82
2024/01/08 09:46:24;;;;;;;4.85;2.63;;;;;;;4.61;60.58;94138.75;5030354;28;20045;-82
2024/01/08 09:48:53;;;;;;;3.17;2.05;;;;;;;4.56;60.45;94144.69;5029643;28;20034;-80
2024/01/08 09:51:19;;;;;;;6.05;3.17;;;;;;;4.56;61.14;94142.72;5030524;28;20025;-82
2024/01/08 09:53:45;;;;;;;3.80;1.95;;;;;;;4.60;60.87;94143.44;5029503;28;20035;-82
2024/01/08 09:56:11;;;;;;;5.63;3.67;;;;;;;4.60;61.04;94140.72;5030060;28;20435;-81
2024/01/08 09:58:36;;;;;;;4.90;3.05;;;;;;;4.61;60.90;94136.81;5030220;28;20090;-83
2024/01/08 10:01:03;;;;;;;5.32;3.00;;;;;;;4.66;60.62;94149.16;5030447;28;20026;-82
2024/01/08 10:03:28;;;;;;;3.67;2.22;;;;;;;4.67;59.52;94151.47;5030058;28;20161;-81
2024/01/08 10:05:54;;;;;;;3.88;2.47;;;;;;;4.66;59.77;94147.22;5030249;28;20491;-82
2024/01/08 10:08:19;;;;;;;3.85;2.97;;;;;;;4.70;59.73;94161.53;5030178;28;20121;-82
2024/01/08 10:10:45;;;;;;;4.53;2.65;;;;;;;4.62;59.92;94151.94;5030407;28;20033;-82
2024/01/08 10:13:12;;;;;;;3.33;2.90;;;;;;;4.67;59.54;94161.59;5030054;28;20025;-81
2024/01/08 10:15:37;;;;;;;4.10;2.70;;;;;;;4.57;59.92;94148.94;5029955;28;20114;-81
2024/01/08 10:18:08;;;;;;;7.47;2.95;;;;;;;4.59;59.83;94152.00;5028820;28;20492;-82
2024/01/08 10:20:33;;;;;;;3.88;2.33;;;;;;;4.64;60.04;94160.44;5030504;28;20037;-84
2024/01/08 10:23:09;;;;;;;3.45;2.65;;;;;;;4.55;59.53;94162.19;5029585;28;20029;-82
2024/01/08 10:25:38;;;;;;;4.38;2.47;;;;;;;4.51;59.64;94140.47;5030317;28;20096;-82
2024/01/08 10:28:10;;;;;;;2.67;2.10;;;;;;;4.53;59.42;94154.47;5030211;28;20072;-83
2024/01/08 10:30:35;;;;;;;3.30;2.40;;;;;;;4.54;59.92;94158.72;5030138;28;20029;-82
2024/01/08 10:33:01;;;;;;;4.57;2.83;;;;;;;4.43;59.94;94155.41;5028330;28;20044;-81
2024/01/08 10:35:29;;;;;;;3.75;2.13;;;;;;;4.52;59.71;94158.34;5029481;28;20052;-82
2024/01/08 10:37:56;;;;;;;4.35;3.13;;;;;;;4.57;59.81;94165.25;5030299;28;20056;-81
2024/01/08 10:40:21;;;;;;;4.25;3.13;;;;;;;4.61;59.65;94158.56;5012169;28;20031;-84
2024/01/08 10:42:47;;;;;;;4.90;2.88;;;;;;;4.64;60.06;94159.69;5029692;28;20037;-81
2024/01/08 10:45:13;;;;;;;3.50;2.70;;;;;;;4.64;59.89;94154.25;5027994;28;20056;-82
2024/01/08 10:47:45;;;;;;;3.00;2.50;;;;;;;4.66;59.60;94149.94;5029683;28;20099;-82
2024/01/08 10:50:12;;;;;;;2.95;2.33;;;;;;;4.59;59.10;94154.72;5027961;28;20039;-83
2024/01/08 10:52:45;;;;;;;3.05;2.08;;;;;;;4.55;59.21;94164.94;5027187;28;20028;-80
2024/01/08 10:55:15;;;;;;;3.58;2.58;;;;;;;4.59;59.72;94171.06;5028280;28;20026;-81
2024/01/08 10:58:00;;;;;;;3.42;2.67;;;;;;;4.58;59.43;94175.72;5028100;28;20144;-81
2024/01/08 11:00:27;;;;;;;4.10;2.53;;;;;;;4.62;59.52;94167.50;5029289;28;20029;-81
2024/01/08 11:02:53;;;;;;;4.53;2.50;;;;;;;4.64;58.94;94171.34;5029228;28;20041;-82
2024/01/08 11:05:21;;;;;;;4.70;2.88;;;;;;;4.65;59.38;94158.53;5027738;28;20029;-82
2024/01/08 11:07:49;;;;;;;4.38;2.80;;;;;;;4.64;59.21;94162.41;5027629;28;20601;-82
2024/01/08 11:10:15;;;;;;;3.92;2.47;;;;;;;4.67;59.12;94167.78;5029415;28;20033;-81
2024/01/08 11:12:41;;;;;;;4.32;2.50;;;;;;;4.61;59.46;94174.91;5029218;28;20033;-82
2024/01/08 11:15:07;;;;;;;5.68;3.10;;;;;;;4.69;59.29;94178.25;5029005;28;20049;-82
2024/01/08 11:17:33;;;;;;;5.53;3.72;;;;;;;4.72;59.50;94188.34;5028906;28;20033;-81
2024/01/08 11:19:59;;;;;;;10.45;5.05;;;;;;;4.72;59.24;94180.94;5029184;28;20026;-82
2024/01/08 11:22:25;;;;;;;4.78;3.30;;;;;;;4.72;59.49;94180.16;5028305;28;20167;-83
2024/01/08 11:24:56;;;;;;;5.28;2.80;;;;;;;4.72;59.88;94189.09;5028857;28;20446;-81
2024/01/08 11:27:22;;;;;;;5.30;3.35;;;;;;;4.76;59.38;94189.03;5028696;28;20033;-81
2024/01/08 11:29:58;;;;;;;3.22;2.60;;;;;;;4.77;58.54;94183.16;5028724;28;20073;-82
2024/01/08 11:32:38;;;;;;;5.47;3.47;;;;;;;4.75;59.08;94185.53;5028787;28;20025;-81
2024/01/08 11:35:06;;;;;;;3.80;2.75;;;;;;;4.77;59.35;94194.06;5028768;28;20044;-81